Time,TemperatureF,DewpointF,PressureIn,WindDirection,WindDirectionDegrees,WindSpeedMPH,WindSpeedGustMPH,Humidity,HourlyPrecipIn,Conditions,Clouds,dailyrainin,SolarRadiationWatts/m^2,SoftwareType,DateUTC
2013-08-15 00:00:00,55.1,50.0,30.14,NNW,344,0.0,0.0,83,0.00,,,0.00,0,Wunderground v.1.15,2013-08-15 04:00:00,
2013-08-15 00:01:00,55.1,50.0,30.14,NNW,344,0.0,0.0,83,0.00,,,0.00,0,Wunderground v.1.15,2013-08-15 04:01:00,
2013-08-15 00:02:00,55.1,50.0,30.14,NNW,344,0.0,0.0,83,0.00,,,0.00,0,Wunderground v.1.15,2013-08-15 04:02:00,
2013-08-15 00:03:00,55.1,50.0,30.14,NNW,344,0.0,0.0,83,0.00,,,0.00,0,Wunderground v.1.15,2013-08-15 04:03:00,
2013-08-15 00:05:00,55.1,50.0,30.14,NNW,344,0.0,0.0,83,0.00,,,0.00,0,Wunderground v.1.15,2013-08-15 04:05:00,
2013-08-15 00:06:00,55.1,50.0,30.14,NNW,344,0.0,0.0,83,0.00,,,0.00,0,Wunderground v.1.15,2013-08-15 04:06:00,
2013-08-15 00:11:00,55.0,49.9,30.14,NNW,344,0.0,0.0,83,0.00,,,0.00,0,Wunderground v.1.15,2013-08-15 04:11:00,
2013-08-15 00:16:00,54.9,49.8,30.14,NNW,344,0.0,0.0,83,0.00,,,0.00,0,Wunderground v.1.15,2013-08-15 04:16:00,
2013-08-15 00:21:00,54.7,49.6,30.15,NNW,344,0.0,0.0,83,0.00,,,0.00,0,Wunderground v.1.15,2013-08-15 04:21:00,
2013-08-15 00:26:00,54.5,49.4,30.15,NNW,344,0.0,0.0,83,0.00,,,0.00,0,Wunderground v.1.15,2013-08-15 04:26:00,
2013-08-15 00:31:00,54.3,49.2,30.15,NNW,344,0.0,0.0,83,0.00,,,0.00,0,Wunderground v.1.15,2013-08-15 04:31:00,
2013-08-15 00:37:00,54.2,49.1,30.15,NNW,344,0.0,0.0,83,0.00,,,0.00,0,Wunderground v.1.15,2013-08-15 04:37:00,
2013-08-15 00:42:00,54.1,49.1,30.15,NNW,344,0.0,0.0,83,0.00,,,0.00,0,Wunderground v.1.15,2013-08-15 04:42:00,
2013-08-15 00:47:00,54.0,49.0,30.15,NNW,344,0.0,0.0,83,0.00,,,0.00,0,Wunderground v.1.15,2013-08-15 04:47:00,
2013-08-15 00:52:00,54.0,49.3,30.15,NNW,344,0.0,0.0,84,0.00,,,0.00,0,Wunderground v.1.15,2013-08-15 04:52:00,
2013-08-15 00:57:00,53.9,49.2,30.15,NNW,344,0.0,0.0,84,0.00,,,0.00,0,Wunderground v.1.15,2013-08-15 04:57:00,
2013-08-15 01:03:00,53.7,49.0,30.15,NNW,344,0.0,0.0,84,0.00,,,0.00,0,Wunderground v.1.15,2013-08-15 05:03:00,
2013-08-15 01:08:00,53.6,48.9,30.15,NNW,344,0.0,0.0,84,0.00,,,0.00,0,Wunderground v.1.15,2013-08-15 05:08:00,
2013-08-15 01:13:00,53.5,48.8,30.15,NNW,344,0.0,0.0,84,0.00,,,0.00,0,Wunderground v.1.15,2013-08-15 05:13:00,
2013-08-15 01:18:00,53.4,48.7,30.15,NNW,344,0.0,0.0,84,0.00,,,0.00,0,Wunderground v.1.15,2013-08-15 05:18:00,
2013-08-15 01:23:00,53.2,48.5,30.15,NNW,344,0.0,0.0,84,0.00,,,0.00,0,Wunderground v.1.15,2013-08-15 05:23:00,
2013-08-15 01:29:00,53.1,48.4,30.15,NNW,344,0.0,0.0,84,0.00,,,0.00,0,Wunderground v.1.15,2013-08-15 05:29:00,
2013-08-15 01:34:00,53.1,48.4,30.15,NNW,344,0.0,0.0,84,0.00,,,0.00,0,Wunderground v.1.15,2013-08-15 05:34:00,
2013-08-15 01:39:00,53.0,48.3,30.15,NNW,344,0.0,0.0,84,0.00,,,0.00,0,Wunderground v.1.15,2013-08-15 05:39:00,
2013-08-15 01:44:00,52.9,48.2,30.15,NNW,344,0.0,0.0,84,0.00,,,0.00,0,Wunderground v.1.15,2013-08-15 05:44:00,
2013-08-15 01:49:00,52.9,48.2,30.16,NNW,344,0.0,0.0,84,0.00,,,0.00,0,Wunderground v.1.15,2013-08-15 05:49:00,
2013-08-15 01:55:00,52.8,48.1,30.16,NNW,344,0.0,0.0,84,0.00,,,0.00,0,Wunderground v.1.15,2013-08-15 05:55:00,
2013-08-15 02:00:00,52.8,48.1,30.16,NNW,344,0.0,0.0,84,0.00,,,0.00,0,Wunderground v.1.15,2013-08-15 06:00:00,
2013-08-15 02:06:00,52.7,48.0,30.16,NNW,344,0.0,0.0,84,0.00,,,0.00,0,Wunderground v.1.15,2013-08-15 06:06:00,
2013-08-15 02:11:00,52.6,47.9,30.16,NNW,344,0.0,0.0,84,0.00,,,0.00,0,Wunderground v.1.15,2013-08-15 06:11:00,
2013-08-15 02:17:00,52.4,47.7,30.16,NNW,344,0.0,0.0,84,0.00,,,0.00,0,Wunderground v.1.15,2013-08-15 06:17:00,
2013-08-15 02:22:00,52.3,47.6,30.16,NNW,344,0.0,0.0,84,0.00,,,0.00,0,Wunderground v.1.15,2013-08-15 06:22:00,
2013-08-15 02:27:00,52.3,47.6,30.16,NNW,344,0.0,0.0,84,0.00,,,0.00,0,Wunderground v.1.15,2013-08-15 06:27:00,
2013-08-15 02:32:00,52.2,47.5,30.16,NNW,344,0.0,0.0,84,0.00,,,0.00,0,Wunderground v.1.15,2013-08-15 06:32:00,
2013-08-15 02:37:00,51.9,47.2,30.16,NNW,344,0.0,0.0,84,0.00,,,0.00,0,Wunderground v.1.15,2013-08-15 06:37:00,
2013-08-15 02:43:00,51.9,47.2,30.16,NNW,344,0.0,0.0,84,0.00,,,0.00,0,Wunderground v.1.15,2013-08-15 06:43:00,
2013-08-15 02:48:00,51.8,47.1,30.17,NNW,344,0.0,0.0,84,0.00,,,0.00,0,Wunderground v.1.15,2013-08-15 06:48:00,
2013-08-15 02:53:00,51.7,47.0,30.17,NNW,344,0.0,0.0,84,0.00,,,0.00,0,Wunderground v.1.15,2013-08-15 06:53:00,
2013-08-15 02:58:00,51.7,47.0,30.17,NNW,344,0.0,0.0,84,0.00,,,0.00,0,Wunderground v.1.15,2013-08-15 06:58:00,
2013-08-15 03:03:00,51.5,46.8,30.17,NNW,344,0.0,0.0,84,0.00,,,0.00,0,Wunderground v.1.15,2013-08-15 07:03:00,
2013-08-15 03:09:00,51.3,46.6,30.17,NNW,344,0.0,0.0,84,0.00,,,0.00,0,Wunderground v.1.15,2013-08-15 07:09:00,
2013-08-15 03:14:00,51.4,47.0,30.17,NNW,344,0.0,0.0,85,0.00,,,0.00,0,Wunderground v.1.15,2013-08-15 07:14:00,
2013-08-15 03:20:00,51.3,46.9,30.17,NNW,344,0.0,0.0,85,0.00,,,0.00,0,Wunderground v.1.15,2013-08-15 07:20:00,
2013-08-15 03:25:00,51.2,46.8,30.17,NNW,344,0.0,0.0,85,0.00,,,0.00,0,Wunderground v.1.15,2013-08-15 07:25:00,
2013-08-15 03:30:00,51.4,47.0,30.17,NNW,344,0.0,0.0,85,0.00,,,0.00,0,Wunderground v.1.15,2013-08-15 07:30:00,
2013-08-15 03:35:00,51.4,47.0,30.17,NNW,344,0.0,0.0,85,0.00,,,0.00,0,Wunderground v.1.15,2013-08-15 07:35:00,
2013-08-15 03:40:00,51.4,47.0,30.17,NNW,344,0.0,0.0,85,0.00,,,0.00,0,Wunderground v.1.15,2013-08-15 07:40:00,
2013-08-15 03:42:00,51.4,47.0,30.17,NNW,344,0.0,0.0,85,0.00,,,0.00,0,Wunderground v.1.15,2013-08-15 07:42:00,
2013-08-15 03:47:00,51.4,47.0,30.17,NNW,344,0.0,0.0,85,0.00,,,0.00,0,Wunderground v.1.15,2013-08-15 07:47:00,
2013-08-15 03:52:00,51.4,47.0,30.17,NNW,344,0.0,0.0,85,0.00,,,0.00,0,Wunderground v.1.15,2013-08-15 07:52:00,
2013-08-15 03:57:00,51.2,46.8,30.17,NNW,344,0.0,0.0,85,0.00,,,0.00,0,Wunderground v.1.15,2013-08-15 07:57:00,
2013-08-15 04:02:00,51.1,46.7,30.17,NNW,344,0.0,0.0,85,0.00,,,0.00,0,Wunderground v.1.15,2013-08-15 08:02:00,
2013-08-15 04:07:00,51.1,46.7,30.17,NNW,344,0.0,0.0,85,0.00,,,0.00,0,Wunderground v.1.15,2013-08-15 08:07:00,
2013-08-15 04:12:00,51.0,46.6,30.17,NNW,344,0.0,0.0,85,0.00,,,0.00,0,Wunderground v.1.15,2013-08-15 08:12:00,
2013-08-15 04:18:00,50.9,46.6,30.18,NNW,344,0.0,0.0,85,0.00,,,0.00,0,Wunderground v.1.15,2013-08-15 08:18:00,
2013-08-15 04:23:00,50.8,46.5,30.18,NNW,344,0.0,0.0,85,0.00,,,0.00,0,Wunderground v.1.15,2013-08-15 08:23:00,
2013-08-15 04:28:00,50.8,46.5,30.18,NNW,344,0.0,0.0,85,0.00,,,0.00,0,Wunderground v.1.15,2013-08-15 08:28:00,
2013-08-15 04:33:00,50.7,46.4,30.18,NNW,344,0.0,0.0,85,0.00,,,0.00,0,Wunderground v.1.15,2013-08-15 08:33:00,
2013-08-15 04:38:00,50.6,46.3,30.18,NNW,344,0.0,0.0,85,0.00,,,0.00,0,Wunderground v.1.15,2013-08-15 08:38:00,
2013-08-15 04:44:00,50.6,46.3,30.19,NNW,344,0.0,0.0,85,0.00,,,0.00,0,Wunderground v.1.15,2013-08-15 08:44:00,
2013-08-15 04:49:00,50.5,46.2,30.19,NNW,344,0.0,0.0,85,0.00,,,0.00,0,Wunderground v.1.15,2013-08-15 08:49:00,
2013-08-15 04:54:00,50.3,46.0,30.19,NNW,344,0.0,0.0,85,0.00,,,0.00,0,Wunderground v.1.15,2013-08-15 08:54:00,
2013-08-15 04:59:00,50.4,46.1,30.19,NNW,344,0.0,0.0,85,0.00,,,0.00,0,Wunderground v.1.15,2013-08-15 08:59:00,
2013-08-15 05:04:00,50.4,46.1,30.19,NNW,344,0.0,0.0,85,0.00,,,0.00,0,Wunderground v.1.15,2013-08-15 09:04:00,
2013-08-15 05:10:00,50.2,45.9,30.19,NNW,344,0.0,0.0,85,0.00,,,0.00,0,Wunderground v.1.15,2013-08-15 09:10:00,
2013-08-15 05:15:00,50.2,45.9,30.19,NNW,344,0.0,0.0,85,0.00,,,0.00,0,Wunderground v.1.15,2013-08-15 09:15:00,
2013-08-15 05:20:00,50.4,46.4,30.19,NNW,344,0.0,0.0,86,0.00,,,0.00,0,Wunderground v.1.15,2013-08-15 09:20:00,
2013-08-15 05:25:00,50.5,46.5,30.19,NNW,344,0.0,0.0,86,0.00,,,0.00,0,Wunderground v.1.15,2013-08-15 09:25:00,
2013-08-15 05:30:00,50.5,46.5,30.19,NNW,344,0.0,0.0,86,0.00,,,0.00,0,Wunderground v.1.15,2013-08-15 09:30:00,
2013-08-15 05:36:00,50.5,46.5,30.19,NNW,344,0.0,0.0,86,0.00,,,0.00,0,Wunderground v.1.15,2013-08-15 09:36:00,
2013-08-15 05:41:00,50.4,46.4,30.20,NNW,344,0.0,0.0,86,0.00,,,0.00,0,Wunderground v.1.15,2013-08-15 09:41:00,
2013-08-15 05:46:00,50.3,46.0,30.20,NNW,344,0.0,0.0,85,0.00,,,0.00,0,Wunderground v.1.15,2013-08-15 09:46:00,
2013-08-15 05:51:00,50.2,46.2,30.20,NNW,344,0.0,0.0,86,0.00,,,0.00,0,Wunderground v.1.15,2013-08-15 09:51:00,
2013-08-15 05:56:00,50.2,46.2,30.20,NNW,344,0.0,0.0,86,0.00,,,0.00,0,Wunderground v.1.15,2013-08-15 09:56:00,
2013-08-15 06:02:00,50.1,46.1,30.20,NNW,344,0.0,0.0,86,0.00,,,0.00,0,Wunderground v.1.15,2013-08-15 10:02:00,
2013-08-15 06:07:00,50.1,46.1,30.20,NNW,344,0.0,0.0,86,0.00,,,0.00,0,Wunderground v.1.15,2013-08-15 10:07:00,
2013-08-15 06:12:00,50.1,46.1,30.20,NNW,344,0.0,0.0,86,0.00,,,0.00,0,Wunderground v.1.15,2013-08-15 10:12:00,
2013-08-15 06:17:00,50.0,46.0,30.20,NNW,344,0.0,0.0,86,0.00,,,0.00,5,Wunderground v.1.15,2013-08-15 10:17:00,
2013-08-15 06:22:00,49.9,45.9,30.21,NNW,344,0.0,0.0,86,0.00,,,0.00,7,Wunderground v.1.15,2013-08-15 10:22:00,
2013-08-15 06:28:00,49.9,45.9,30.21,NNW,344,0.0,0.0,86,0.00,,,0.00,11,Wunderground v.1.15,2013-08-15 10:28:00,
2013-08-15 06:33:00,49.9,45.9,30.21,NNW,344,0.0,0.0,86,0.00,,,0.00,12,Wunderground v.1.15,2013-08-15 10:33:00,
2013-08-15 06:38:00,49.9,45.9,30.21,NNW,344,0.0,0.0,86,0.00,,,0.00,16,Wunderground v.1.15,2013-08-15 10:38:00,
2013-08-15 06:43:00,50.0,46.0,30.21,NNW,344,0.0,0.0,86,0.00,,,0.00,16,Wunderground v.1.15,2013-08-15 10:43:00,
2013-08-15 06:48:00,50.0,46.0,30.21,NNW,344,0.0,0.0,86,0.00,,,0.00,18,Wunderground v.1.15,2013-08-15 10:48:00,
2013-08-15 06:54:00,50.1,46.1,30.21,NNW,344,0.0,0.0,86,0.00,,,0.00,19,Wunderground v.1.15,2013-08-15 10:54:00,
2013-08-15 06:59:00,50.2,46.2,30.21,NNW,344,0.0,0.0,86,0.00,,,0.00,21,Wunderground v.1.15,2013-08-15 10:59:00,
2013-08-15 07:04:00,50.3,46.3,30.22,NNW,344,0.0,0.0,86,0.00,,,0.00,23,Wunderground v.1.15,2013-08-15 11:04:00,
2013-08-15 07:09:00,50.5,46.5,30.22,NNW,344,0.0,0.0,86,0.00,,,0.00,23,Wunderground v.1.15,2013-08-15 11:09:00,
2013-08-15 07:14:00,50.6,46.9,30.22,NNW,344,0.0,0.0,87,0.00,,,0.00,25,Wunderground v.1.15,2013-08-15 11:14:00,
2013-08-15 07:20:00,51.1,47.4,30.22,NNW,344,0.0,0.0,87,0.00,,,0.00,26,Wunderground v.1.15,2013-08-15 11:20:00,
2013-08-15 07:25:00,51.4,47.7,30.22,NNW,344,0.0,0.0,87,0.00,,,0.00,28,Wunderground v.1.15,2013-08-15 11:25:00,
2013-08-15 07:30:00,52.0,48.3,30.22,NNW,344,0.0,0.0,87,0.00,,,0.00,30,Wunderground v.1.15,2013-08-15 11:30:00,
2013-08-15 07:35:00,52.6,49.1,30.22,NNW,344,0.0,0.0,88,0.00,,,0.00,44,Wunderground v.1.15,2013-08-15 11:35:00,
2013-08-15 07:40:00,53.1,49.6,30.22,NNW,344,0.0,0.0,88,0.00,,,0.00,32,Wunderground v.1.15,2013-08-15 11:40:00,
2013-08-15 07:46:00,53.7,50.2,30.22,NNW,344,0.0,0.0,88,0.00,,,0.00,37,Wunderground v.1.15,2013-08-15 11:46:00,
2013-08-15 07:51:00,54.2,50.7,30.22,NNW,344,0.0,0.0,88,0.00,,,0.00,33,Wunderground v.1.15,2013-08-15 11:51:00,
2013-08-15 07:56:00,54.8,51.3,30.23,NW,325,0.0,0.0,88,0.00,,,0.00,81,Wunderground v.1.15,2013-08-15 11:56:00,
2013-08-15 08:01:00,55.3,51.8,30.23,NW,325,0.0,0.0,88,0.00,,,0.00,46,Wunderground v.1.15,2013-08-15 12:01:00,
2013-08-15 08:06:00,55.8,52.0,30.23,NW,325,0.0,0.0,87,0.00,,,0.00,35,Wunderground v.1.15,2013-08-15 12:06:00,
2013-08-15 08:11:00,56.6,52.1,30.23,NW,325,0.0,0.0,85,0.00,,,0.00,35,Wunderground v.1.15,2013-08-15 12:11:00,
2013-08-15 08:16:00,57.1,52.3,30.23,NW,325,0.0,0.0,84,0.00,,,0.00,42,Wunderground v.1.15,2013-08-15 12:16:00,
2013-08-15 08:21:00,57.5,52.4,30.23,NW,325,0.0,0.0,83,0.00,,,0.00,39,Wunderground v.1.15,2013-08-15 12:21:00,
2013-08-15 08:27:00,58.1,53.0,30.23,NW,325,0.0,0.0,83,0.00,,,0.00,39,Wunderground v.1.15,2013-08-15 12:27:00,
2013-08-15 08:32:00,58.6,53.1,30.23,NW,325,0.0,0.0,82,0.00,,,0.00,40,Wunderground v.1.15,2013-08-15 12:32:00,
2013-08-15 08:37:00,59.2,53.7,30.23,NW,323,0.0,0.0,82,0.00,,,0.00,42,Wunderground v.1.15,2013-08-15 12:37:00,
2013-08-15 08:42:00,59.9,54.1,30.23,WNW,300,0.0,0.0,81,0.00,,,0.00,42,Wunderground v.1.15,2013-08-15 12:42:00,
2013-08-15 08:47:00,60.5,54.3,30.23,West,274,0.0,0.0,80,0.00,,,0.00,56,Wunderground v.1.15,2013-08-15 12:47:00,
2013-08-15 08:52:00,61.1,54.5,30.23,NW,308,0.0,0.0,79,0.00,,,0.00,56,Wunderground v.1.15,2013-08-15 12:52:00,
2013-08-15 08:57:00,61.5,54.6,30.23,WNW,300,0.0,0.0,78,0.00,,,0.00,121,Wunderground v.1.15,2013-08-15 12:57:00,
2013-08-15 09:02:00,62.0,55.1,30.23,WNW,300,0.0,0.0,78,0.00,,,0.00,485,Wunderground v.1.15,2013-08-15 13:02:00,
2013-08-15 09:08:00,62.6,54.6,30.23,NNW,327,0.0,0.0,75,0.00,,,0.00,508,Wunderground v.1.15,2013-08-15 13:08:00,
2013-08-15 09:13:00,63.1,54.7,30.23,NW,321,0.0,0.0,74,0.00,,,0.00,531,Wunderground v.1.15,2013-08-15 13:13:00,
2013-08-15 09:18:00,63.4,55.0,30.23,NW,317,0.0,0.0,74,0.00,,,0.00,564,Wunderground v.1.15,2013-08-15 13:18:00,
2013-08-15 09:23:00,63.9,55.4,30.23,NW,309,0.0,0.0,74,0.00,,,0.00,582,Wunderground v.1.15,2013-08-15 13:23:00,
2013-08-15 09:28:00,64.3,55.5,30.23,WNW,296,0.0,0.0,73,0.00,,,0.00,598,Wunderground v.1.15,2013-08-15 13:28:00,
2013-08-15 09:34:00,64.6,55.0,30.23,NW,320,0.0,0.0,71,0.00,,,0.00,613,Wunderground v.1.15,2013-08-15 13:34:00,
2013-08-15 09:39:00,64.9,55.3,30.23,NNW,334,0.0,0.0,71,0.00,,,0.00,629,Wunderground v.1.15,2013-08-15 13:39:00,
2013-08-15 09:44:00,65.2,55.9,30.23,NW,317,0.0,0.0,72,0.00,,,0.00,645,Wunderground v.1.15,2013-08-15 13:44:00,
2013-08-15 09:49:00,65.4,55.7,30.23,NW,311,0.0,0.0,71,0.00,,,0.00,659,Wunderground v.1.15,2013-08-15 13:49:00,
2013-08-15 09:54:00,65.7,56.4,30.23,West,273,0.0,0.0,72,0.00,,,0.00,668,Wunderground v.1.15,2013-08-15 13:54:00,
2013-08-15 10:00:00,66.2,56.1,30.23,SW,228,0.0,0.0,70,0.00,,,0.00,684,Wunderground v.1.15,2013-08-15 14:00:00,
2013-08-15 10:05:00,66.4,56.3,30.23,NW,307,0.0,0.0,70,0.00,,,0.00,698,Wunderground v.1.15,2013-08-15 14:05:00,
2013-08-15 10:10:00,66.6,56.1,30.23,West,273,0.0,0.0,69,0.00,,,0.00,710,Wunderground v.1.15,2013-08-15 14:10:00,
2013-08-15 10:16:00,67.1,57.4,30.23,West,260,0.0,0.0,71,0.00,,,0.00,724,Wunderground v.1.15,2013-08-15 14:16:00,
2013-08-15 10:22:00,67.6,57.5,30.23,WNW,302,0.0,0.0,70,0.00,,,0.00,740,Wunderground v.1.15,2013-08-15 14:22:00,
2013-08-15 10:27:00,67.8,57.3,30.23,WNW,290,0.0,0.0,69,0.00,,,0.00,752,Wunderground v.1.15,2013-08-15 14:27:00,
2013-08-15 10:32:00,67.9,56.9,30.23,NW,311,0.0,0.0,68,0.00,,,0.00,761,Wunderground v.1.15,2013-08-15 14:32:00,
2013-08-15 10:37:00,68.2,57.6,30.24,WSW,244,0.0,0.0,69,0.00,,,0.00,770,Wunderground v.1.15,2013-08-15 14:37:00,
2013-08-15 10:42:00,68.2,56.4,30.23,WSW,246,0.0,0.0,66,0.00,,,0.00,780,Wunderground v.1.15,2013-08-15 14:42:00,
2013-08-15 10:48:00,68.7,56.5,30.23,NW,304,0.0,0.0,65,0.00,,,0.00,793,Wunderground v.1.15,2013-08-15 14:48:00,
2013-08-15 10:54:00,69.3,56.2,30.23,NW,318,0.0,0.0,63,0.00,,,0.00,803,Wunderground v.1.15,2013-08-15 14:54:00,
2013-08-15 10:59:00,69.5,56.8,30.23,NW,307,0.0,0.0,64,0.00,,,0.00,816,Wunderground v.1.15,2013-08-15 14:59:00,
2013-08-15 11:05:00,69.7,55.6,30.23,West,281,0.0,0.0,61,0.00,,,0.00,823,Wunderground v.1.15,2013-08-15 15:05:00,
2013-08-15 11:10:00,70.0,55.0,30.23,West,264,0.0,0.0,59,0.00,,,0.00,833,Wunderground v.1.15,2013-08-15 15:10:00,
2013-08-15 11:15:00,70.3,55.3,30.23,West,266,0.0,0.0,59,0.00,,,0.00,846,Wunderground v.1.15,2013-08-15 15:15:00,
2013-08-15 11:21:00,70.4,54.9,30.22,West,276,0.0,0.0,58,0.00,,,0.00,854,Wunderground v.1.15,2013-08-15 15:21:00,
2013-08-15 11:26:00,70.6,56.0,30.22,West,275,0.0,0.0,60,0.00,,,0.00,868,Wunderground v.1.15,2013-08-15 15:26:00,
2013-08-15 11:31:00,70.8,54.8,30.22,WNW,300,2.0,7.0,57,0.00,,,0.00,882,Wunderground v.1.15,2013-08-15 15:31:00,
2013-08-15 11:36:00,71.3,55.3,30.22,NW,311,3.0,7.0,57,0.00,,,0.00,893,Wunderground v.1.15,2013-08-15 15:36:00,
2013-08-15 11:41:00,71.5,51.9,30.22,NNW,348,4.0,5.0,50,0.00,,,0.00,898,Wunderground v.1.15,2013-08-15 15:41:00,
2013-08-15 11:46:00,71.5,52.4,30.22,West,269,4.0,5.0,51,0.00,,,0.00,904,Wunderground v.1.15,2013-08-15 15:46:00,
2013-08-15 11:51:00,71.8,52.2,30.22,West,263,3.0,5.0,50,0.00,,,0.00,898,Wunderground v.1.15,2013-08-15 15:51:00,
2013-08-15 11:57:00,71.8,53.2,30.22,NW,305,3.0,6.0,52,0.00,,,0.00,900,Wunderground v.1.15,2013-08-15 15:57:00,
2013-08-15 12:02:00,72.0,52.3,30.22,NW,307,4.0,7.0,50,0.00,,,0.00,909,Wunderground v.1.15,2013-08-15 16:02:00,
2013-08-15 12:08:00,72.1,53.0,30.22,NW,309,4.0,7.0,51,0.00,,,0.00,907,Wunderground v.1.15,2013-08-15 16:08:00,
2013-08-15 12:13:00,72.3,53.7,30.22,NW,317,2.0,4.0,52,0.00,,,0.00,911,Wunderground v.1.15,2013-08-15 16:13:00,
2013-08-15 12:19:00,72.8,54.1,30.21,NW,326,2.0,7.0,52,0.00,,,0.00,919,Wunderground v.1.15,2013-08-15 16:19:00,
2013-08-15 12:24:00,73.1,54.4,30.21,West,273,3.0,5.0,52,0.00,,,0.00,942,Wunderground v.1.15,2013-08-15 16:24:00,
2013-08-15 12:29:00,73.0,53.8,30.21,WNW,303,2.0,5.0,51,0.00,,,0.00,932,Wunderground v.1.15,2013-08-15 16:29:00,
2013-08-15 12:34:00,73.0,53.8,30.20,WNW,289,3.0,5.0,51,0.00,,,0.00,962,Wunderground v.1.15,2013-08-15 16:34:00,
2013-08-15 12:39:00,73.1,54.9,30.20,SW,236,4.0,6.0,53,0.00,,,0.00,988,Wunderground v.1.15,2013-08-15 16:39:00,
2013-08-15 12:44:00,72.8,53.1,30.20,NW,304,5.0,8.0,50,0.00,,,0.00,1009,Wunderground v.1.15,2013-08-15 16:44:00,
2013-08-15 12:49:00,73.0,54.9,30.20,WNW,285,5.0,8.0,53,0.00,,,0.00,976,Wunderground v.1.15,2013-08-15 16:49:00,
2013-08-15 12:54:00,72.6,53.4,30.20,WNW,296,5.0,8.0,51,0.00,,,0.00,956,Wunderground v.1.15,2013-08-15 16:54:00,
2013-08-15 12:59:00,72.8,54.1,30.20,NNW,328,4.0,8.0,52,0.00,,,0.00,928,Wunderground v.1.15,2013-08-15 16:59:00,
2013-08-15 13:04:00,72.8,54.7,30.20,WSW,253,4.0,8.0,53,0.00,,,0.00,935,Wunderground v.1.15,2013-08-15 17:04:00,
2013-08-15 13:10:00,73.3,55.1,30.19,WNW,292,5.0,7.0,53,0.00,,,0.00,932,Wunderground v.1.15,2013-08-15 17:10:00,
2013-08-15 13:15:00,73.3,54.6,30.19,WNW,292,4.0,9.0,52,0.00,,,0.00,930,Wunderground v.1.15,2013-08-15 17:15:00,
2013-08-15 13:20:00,73.2,54.5,30.19,NW,313,4.0,8.0,52,0.00,,,0.00,930,Wunderground v.1.15,2013-08-15 17:20:00,
2013-08-15 13:26:00,73.1,52.8,30.18,NW,309,5.0,8.0,49,0.00,,,0.00,939,Wunderground v.1.15,2013-08-15 17:26:00,
2013-08-15 13:31:00,73.1,54.9,30.18,NW,313,5.0,7.0,53,0.00,,,0.00,926,Wunderground v.1.15,2013-08-15 17:31:00,
2013-08-15 13:37:00,73.7,52.8,30.18,West,272,5.0,9.0,48,0.00,,,0.00,921,Wunderground v.1.15,2013-08-15 17:37:00,
2013-08-15 13:42:00,73.7,55.5,30.18,NNW,336,5.0,6.0,53,0.00,,,0.00,916,Wunderground v.1.15,2013-08-15 17:42:00,
2013-08-15 13:48:00,74.0,54.2,30.18,NW,306,3.0,6.0,50,0.00,,,0.00,933,Wunderground v.1.15,2013-08-15 17:48:00,
2013-08-15 13:54:00,74.3,55.0,30.18,NW,311,3.0,7.0,51,0.00,,,0.00,916,Wunderground v.1.15,2013-08-15 17:54:00,
2013-08-15 13:59:00,74.3,55.5,30.18,NNW,338,4.0,7.0,52,0.00,,,0.00,933,Wunderground v.1.15,2013-08-15 17:59:00,
2013-08-15 14:04:00,74.4,54.5,30.17,West,281,4.0,4.0,50,0.00,,,0.00,916,Wunderground v.1.15,2013-08-15 18:04:00,
2013-08-15 14:10:00,74.2,54.4,30.17,West,281,3.0,3.0,50,0.00,,,0.00,972,Wunderground v.1.15,2013-08-15 18:10:00,
2013-08-15 14:15:00,74.1,53.7,30.17,NW,319,4.0,10.0,49,0.00,,,0.00,919,Wunderground v.1.15,2013-08-15 18:15:00,
2013-08-15 14:22:00,73.9,55.2,30.17,WNW,298,4.0,4.0,52,0.00,,,0.00,179,Wunderground v.1.15,2013-08-15 18:22:00,
2013-08-15 14:27:00,74.1,55.3,30.17,WNW,303,4.0,8.0,52,0.00,,,0.00,882,Wunderground v.1.15,2013-08-15 18:27:00,
2013-08-15 14:32:00,74.8,55.5,30.17,SSW,206,4.0,4.0,51,0.00,,,0.00,865,Wunderground v.1.15,2013-08-15 18:32:00,
2013-08-15 14:38:00,75.1,55.2,30.17,NW,319,3.0,6.0,50,0.00,,,0.00,881,Wunderground v.1.15,2013-08-15 18:38:00,
2013-08-15 14:43:00,75.7,55.7,30.16,NW,314,3.0,5.0,50,0.00,,,0.00,870,Wunderground v.1.15,2013-08-15 18:43:00,
2013-08-15 14:48:00,75.2,54.7,30.16,SSW,208,4.0,6.0,49,0.00,,,0.00,830,Wunderground v.1.15,2013-08-15 18:48:00,
2013-08-15 14:54:00,74.8,56.0,30.16,WNW,286,5.0,10.0,52,0.00,,,0.00,833,Wunderground v.1.15,2013-08-15 18:54:00,
2013-08-15 15:00:00,74.5,54.6,30.16,WNW,301,5.0,5.0,50,0.00,,,0.00,125,Wunderground v.1.15,2013-08-15 19:00:00,
2013-08-15 15:05:00,74.6,54.7,30.16,SSE,155,3.0,5.0,50,0.00,,,0.00,146,Wunderground v.1.15,2013-08-15 19:05:00,
2013-08-15 15:10:00,75.1,55.7,30.15,SW,221,1.0,4.0,51,0.00,,,0.00,919,Wunderground v.1.15,2013-08-15 19:10:00,
2013-08-15 15:16:00,75.4,56.0,30.16,NW,321,3.0,4.0,51,0.00,,,0.00,881,Wunderground v.1.15,2013-08-15 19:16:00,
2013-08-15 15:21:00,75.5,54.4,30.15,West,259,3.0,3.0,48,0.00,,,0.00,216,Wunderground v.1.15,2013-08-15 19:21:00,
2013-08-15 15:26:00,75.7,55.7,30.15,WNW,289,3.0,4.0,50,0.00,,,0.00,830,Wunderground v.1.15,2013-08-15 19:26:00,
2013-08-15 15:31:00,76.1,52.6,30.15,WSW,238,4.0,7.0,44,0.00,,,0.00,854,Wunderground v.1.15,2013-08-15 19:31:00,
2013-08-15 15:37:00,75.7,54.6,30.15,West,268,4.0,7.0,48,0.00,,,0.00,230,Wunderground v.1.15,2013-08-15 19:37:00,
2013-08-15 15:43:00,74.9,53.9,30.15,NW,319,3.0,5.0,48,0.00,,,0.00,206,Wunderground v.1.15,2013-08-15 19:43:00,
2013-08-15 15:48:00,74.9,55.0,30.15,NW,304,3.0,5.0,50,0.00,,,0.00,770,Wunderground v.1.15,2013-08-15 19:48:00,
2013-08-15 15:53:00,75.4,53.2,30.15,NW,315,4.0,8.0,46,0.00,,,0.00,721,Wunderground v.1.15,2013-08-15 19:53:00,
2013-08-15 15:58:00,75.8,54.7,30.14,NW,311,5.0,8.0,48,0.00,,,0.00,696,Wunderground v.1.15,2013-08-15 19:58:00,
2013-08-15 16:04:00,75.9,53.6,30.15,WNW,295,4.0,7.0,46,0.00,,,0.00,694,Wunderground v.1.15,2013-08-15 20:04:00,
2013-08-15 16:10:00,75.4,53.8,30.14,WNW,298,4.0,4.0,47,0.00,,,0.00,661,Wunderground v.1.15,2013-08-15 20:10:00,
2013-08-15 16:16:00,75.8,52.9,30.14,NW,323,3.0,4.0,45,0.00,,,0.00,624,Wunderground v.1.15,2013-08-15 20:16:00,
2013-08-15 16:21:00,76.0,54.3,30.14,NW,325,3.0,6.0,47,0.00,,,0.00,635,Wunderground v.1.15,2013-08-15 20:21:00,
2013-08-15 16:26:00,75.9,53.6,30.14,West,274,4.0,7.0,46,0.00,,,0.00,605,Wunderground v.1.15,2013-08-15 20:26:00,
2013-08-15 16:32:00,76.0,53.1,30.14,NW,304,5.0,7.0,45,0.00,,,0.00,610,Wunderground v.1.15,2013-08-15 20:32:00,
2013-08-15 16:37:00,76.2,53.3,30.14,West,267,4.0,7.0,45,0.00,,,0.00,601,Wunderground v.1.15,2013-08-15 20:37:00,
2013-08-15 16:42:00,76.7,56.1,30.14,NW,311,3.0,6.0,49,0.00,,,0.00,585,Wunderground v.1.15,2013-08-15 20:42:00,
2013-08-15 16:47:00,76.9,54.5,30.14,NNW,332,3.0,6.0,46,0.00,,,0.00,541,Wunderground v.1.15,2013-08-15 20:47:00,
2013-08-15 16:52:00,76.8,53.8,30.14,NW,309,3.0,9.0,45,0.00,,,0.00,522,Wunderground v.1.15,2013-08-15 20:52:00,
2013-08-15 16:58:00,77.8,54.8,30.14,NW,308,2.0,9.0,45,0.00,,,0.00,496,Wunderground v.1.15,2013-08-15 20:58:00,
2013-08-15 17:04:00,77.1,53.5,30.14,NW,305,2.0,4.0,44,0.00,,,0.00,478,Wunderground v.1.15,2013-08-15 21:04:00,
2013-08-15 17:09:00,76.7,52.5,30.14,WNW,284,3.0,4.0,43,0.00,,,0.00,471,Wunderground v.1.15,2013-08-15 21:09:00,
2013-08-15 17:14:00,76.5,52.3,30.14,West,278,3.0,3.0,43,0.00,,,0.00,466,Wunderground v.1.15,2013-08-15 21:14:00,
2013-08-15 17:20:00,76.9,52.7,30.14,WNW,282,2.0,2.0,43,0.00,,,0.00,448,Wunderground v.1.15,2013-08-15 21:20:00,
2013-08-15 17:25:00,77.6,54.0,30.14,WNW,299,2.0,3.0,44,0.00,,,0.00,360,Wunderground v.1.15,2013-08-15 21:25:00,
2013-08-15 17:32:00,76.6,54.3,30.14,NW,320,3.0,3.0,46,0.00,,,0.00,408,Wunderground v.1.15,2013-08-15 21:32:00,
2013-08-15 17:37:00,76.6,54.3,30.14,NW,309,3.0,6.0,46,0.00,,,0.00,408,Wunderground v.1.15,2013-08-15 21:37:00,
2013-08-15 17:42:00,76.2,52.7,30.14,NW,304,3.0,5.0,44,0.00,,,0.00,239,Wunderground v.1.15,2013-08-15 21:42:00,
2013-08-15 17:47:00,76.0,53.1,30.14,NW,304,3.0,5.0,45,0.00,,,0.00,339,Wunderground v.1.15,2013-08-15 21:47:00,
2013-08-15 17:53:00,76.5,53.0,30.14,WNW,301,2.0,3.0,44,0.00,,,0.00,234,Wunderground v.1.15,2013-08-15 21:53:00,
2013-08-15 17:58:00,76.7,57.2,30.14,WNW,288,2.0,3.0,51,0.00,,,0.00,276,Wunderground v.1.15,2013-08-15 21:58:00,
2013-08-15 18:03:00,76.4,54.1,30.14,West,264,2.0,2.0,46,0.00,,,0.00,186,Wunderground v.1.15,2013-08-15 22:03:00,
2013-08-15 18:09:00,76.6,54.9,30.14,West,259,2.0,5.0,47,0.00,,,0.00,178,Wunderground v.1.15,2013-08-15 22:09:00,
2013-08-15 18:14:00,76.7,56.7,30.14,West,259,1.0,2.0,50,0.00,,,0.00,225,Wunderground v.1.15,2013-08-15 22:14:00,
2013-08-15 18:19:00,77.4,55.0,30.13,West,259,1.0,2.0,46,0.00,,,0.00,183,Wunderground v.1.15,2013-08-15 22:19:00,
2013-08-15 18:24:00,77.7,55.9,30.14,West,259,1.0,1.0,47,0.00,,,0.00,190,Wunderground v.1.15,2013-08-15 22:24:00,
2013-08-15 18:30:00,77.9,59.9,30.13,West,259,0.0,0.0,54,0.00,,,0.00,174,Wunderground v.1.15,2013-08-15 22:30:00,
2013-08-15 18:35:00,79.1,57.7,30.13,West,259,0.0,0.0,48,0.00,,,0.00,148,Wunderground v.1.15,2013-08-15 22:35:00,
2013-08-15 18:40:00,79.6,59.3,30.13,West,259,0.0,0.0,50,0.00,,,0.00,127,Wunderground v.1.15,2013-08-15 22:40:00,
2013-08-15 18:45:00,80.0,60.2,30.14,West,259,0.0,0.0,51,0.00,,,0.00,125,Wunderground v.1.15,2013-08-15 22:45:00,
2013-08-15 18:50:00,79.8,59.5,30.14,West,259,0.0,0.0,50,0.00,,,0.00,54,Wunderground v.1.15,2013-08-15 22:50:00,
2013-08-15 18:55:00,79.2,62.1,30.14,West,259,0.0,0.0,56,0.00,,,0.00,70,Wunderground v.1.15,2013-08-15 22:55:00,
2013-08-15 19:01:00,78.8,62.3,30.14,West,259,0.0,0.0,57,0.00,,,0.00,63,Wunderground v.1.15,2013-08-15 23:01:00,
2013-08-15 19:07:00,78.6,63.1,30.14,West,259,0.0,0.0,59,0.00,,,0.00,51,Wunderground v.1.15,2013-08-15 23:07:00,
2013-08-15 19:12:00,78.4,63.8,30.14,West,259,0.0,0.0,61,0.00,,,0.00,44,Wunderground v.1.15,2013-08-15 23:12:00,
2013-08-15 19:17:00,77.8,63.3,30.15,West,259,0.0,1.0,61,0.00,,,0.00,30,Wunderground v.1.15,2013-08-15 23:17:00,
2013-08-15 19:22:00,77.0,63.0,30.15,West,259,0.0,0.0,62,0.00,,,0.00,18,Wunderground v.1.15,2013-08-15 23:22:00,
2013-08-15 19:28:00,75.8,63.2,30.15,West,259,0.0,0.0,65,0.00,,,0.00,19,Wunderground v.1.15,2013-08-15 23:28:00,
2013-08-15 19:34:00,74.2,62.5,30.15,West,259,0.0,0.0,67,0.00,,,0.00,16,Wunderground v.1.15,2013-08-15 23:34:00,
2013-08-15 19:39:00,72.9,62.1,30.16,West,259,0.0,0.0,69,0.00,,,0.00,12,Wunderground v.1.15,2013-08-15 23:39:00,
2013-08-15 19:44:00,72.0,61.7,30.16,West,259,0.0,0.0,70,0.00,,,0.00,9,Wunderground v.1.15,2013-08-15 23:44:00,
2013-08-15 19:50:00,71.1,60.8,30.17,West,259,0.0,0.0,70,0.00,,,0.00,5,Wunderground v.1.15,2013-08-15 23:50:00,
2013-08-15 19:55:00,70.5,60.6,30.17,West,259,0.0,0.0,71,0.00,,,0.00,0,Wunderground v.1.15,2013-08-15 23:55:00,
2013-08-15 20:01:00,70.0,60.2,30.17,West,259,0.0,0.0,71,0.00,,,0.00,0,Wunderground v.1.15,2013-08-16 00:01:00,
2013-08-15 20:06:00,69.4,59.6,30.17,West,259,0.0,0.0,71,0.00,,,0.00,0,Wunderground v.1.15,2013-08-16 00:06:00,
2013-08-15 20:12:00,68.4,59.4,30.17,West,259,0.0,0.0,73,0.00,,,0.00,0,Wunderground v.1.15,2013-08-16 00:12:00,
2013-08-15 20:17:00,67.7,59.1,30.17,West,259,0.0,0.0,74,0.00,,,0.00,0,Wunderground v.1.15,2013-08-16 00:17:00,
2013-08-15 20:23:00,67.2,58.6,30.17,West,259,0.0,0.0,74,0.00,,,0.00,0,Wunderground v.1.15,2013-08-16 00:23:00,
2013-08-15 20:28:00,66.7,58.5,30.17,West,259,0.0,0.0,75,0.00,,,0.00,0,Wunderground v.1.15,2013-08-16 00:28:00,
2013-08-15 20:33:00,65.3,57.5,30.17,West,259,0.0,0.0,76,0.00,,,0.00,0,Wunderground v.1.15,2013-08-16 00:33:00,
2013-08-15 20:39:00,64.6,57.2,30.17,West,259,0.0,0.0,77,0.00,,,0.00,0,Wunderground v.1.15,2013-08-16 00:39:00,
2013-08-15 20:45:00,64.2,57.2,30.17,West,259,0.0,0.0,78,0.00,,,0.00,0,Wunderground v.1.15,2013-08-16 00:45:00,
2013-08-15 20:51:00,63.8,57.2,30.17,West,259,0.0,0.0,79,0.00,,,0.00,0,Wunderground v.1.15,2013-08-16 00:51:00,
2013-08-15 20:56:00,63.2,56.6,30.18,West,259,0.0,0.0,79,0.00,,,0.00,0,Wunderground v.1.15,2013-08-16 00:56:00,
2013-08-15 21:01:00,62.7,56.4,30.18,West,259,0.0,0.0,80,0.00,,,0.00,0,Wunderground v.1.15,2013-08-16 01:01:00,
2013-08-15 21:06:00,62.3,56.0,30.18,West,259,0.0,0.0,80,0.00,,,0.00,0,Wunderground v.1.15,2013-08-16 01:06:00,
2013-08-15 21:11:00,62.1,56.2,30.18,West,259,0.0,0.0,81,0.00,,,0.00,0,Wunderground v.1.15,2013-08-16 01:11:00,
2013-08-15 21:17:00,61.8,55.9,30.19,West,259,0.0,0.0,81,0.00,,,0.00,0,Wunderground v.1.15,2013-08-16 01:17:00,
2013-08-15 21:23:00,61.4,55.5,30.19,West,259,0.0,0.0,81,0.00,,,0.00,0,Wunderground v.1.15,2013-08-16 01:23:00,
2013-08-15 21:29:00,61.3,55.8,30.19,West,259,0.0,0.0,82,0.00,,,0.00,0,Wunderground v.1.15,2013-08-16 01:29:00,
2013-08-15 21:35:00,61.2,55.7,30.19,West,259,0.0,0.0,82,0.00,,,0.00,0,Wunderground v.1.15,2013-08-16 01:35:00,
2013-08-15 21:40:00,61.1,55.6,30.20,West,259,0.0,0.0,82,0.00,,,0.00,0,Wunderground v.1.15,2013-08-16 01:40:00,
2013-08-15 21:46:00,61.0,55.5,30.20,West,259,0.0,0.0,82,0.00,,,0.00,0,Wunderground v.1.15,2013-08-16 01:46:00,
2013-08-15 21:52:00,61.0,55.5,30.20,West,259,0.0,0.0,82,0.00,,,0.00,0,Wunderground v.1.15,2013-08-16 01:52:00,
2013-08-15 21:57:00,60.9,55.4,30.20,West,259,0.0,0.0,82,0.00,,,0.00,0,Wunderground v.1.15,2013-08-16 01:57:00,
2013-08-15 22:02:00,60.9,55.4,30.20,West,259,0.0,0.0,82,0.00,,,0.00,0,Wunderground v.1.15,2013-08-16 02:02:00,
2013-08-15 22:07:00,60.8,55.3,30.20,West,259,0.0,0.0,82,0.00,,,0.00,0,Wunderground v.1.15,2013-08-16 02:07:00,
2013-08-15 22:12:00,60.9,55.7,30.20,West,259,0.0,0.0,83,0.00,,,0.00,0,Wunderground v.1.15,2013-08-16 02:12:00,
2013-08-15 22:17:00,60.9,55.7,30.20,West,259,0.0,0.0,83,0.00,,,0.00,0,Wunderground v.1.15,2013-08-16 02:17:00,
2013-08-15 22:23:00,60.9,55.7,30.20,West,259,0.0,0.0,83,0.00,,,0.00,0,Wunderground v.1.15,2013-08-16 02:23:00,
2013-08-15 22:28:00,60.9,55.7,30.20,West,259,0.0,0.0,83,0.00,,,0.00,0,Wunderground v.1.15,2013-08-16 02:28:00,
2013-08-15 22:34:00,61.0,55.8,30.20,West,259,0.0,0.0,83,0.00,,,0.00,0,Wunderground v.1.15,2013-08-16 02:34:00,
2013-08-15 22:39:00,61.0,55.8,30.21,West,259,0.0,0.0,83,0.00,,,0.00,0,Wunderground v.1.15,2013-08-16 02:39:00,
2013-08-15 22:45:00,61.0,55.8,30.20,West,259,0.0,0.0,83,0.00,,,0.00,0,Wunderground v.1.15,2013-08-16 02:45:00,
2013-08-15 22:50:00,61.0,55.8,30.20,West,259,0.0,0.0,83,0.00,,,0.00,0,Wunderground v.1.15,2013-08-16 02:50:00,
2013-08-15 22:55:00,61.0,55.8,30.20,West,259,0.0,0.0,83,0.00,,,0.00,0,Wunderground v.1.15,2013-08-16 02:55:00,
2013-08-15 23:00:00,60.9,55.7,30.21,West,259,0.0,0.0,83,0.00,,,0.00,0,Wunderground v.1.15,2013-08-16 03:00:00,
2013-08-15 23:05:00,60.9,55.7,30.20,West,259,0.0,0.0,83,0.00,,,0.00,0,Wunderground v.1.15,2013-08-16 03:05:00,
2013-08-15 23:11:00,60.9,55.7,30.20,West,259,0.0,0.0,83,0.00,,,0.00,0,Wunderground v.1.15,2013-08-16 03:11:00,
2013-08-15 23:16:00,60.7,55.5,30.21,West,259,0.0,0.0,83,0.00,,,0.00,0,Wunderground v.1.15,2013-08-16 03:16:00,
2013-08-15 23:21:00,60.6,55.4,30.21,West,259,0.0,0.0,83,0.00,,,0.00,0,Wunderground v.1.15,2013-08-16 03:21:00,
2013-08-15 23:26:00,60.6,55.4,30.20,West,259,0.0,0.0,83,0.00,,,0.00,0,Wunderground v.1.15,2013-08-16 03:26:00,
2013-08-15 23:32:00,60.5,55.3,30.20,West,259,0.0,0.0,83,0.00,,,0.00,0,Wunderground v.1.15,2013-08-16 03:32:00,
2013-08-15 23:37:00,60.3,55.1,30.21,West,259,0.0,0.0,83,0.00,,,0.00,0,Wunderground v.1.15,2013-08-16 03:37:00,
2013-08-15 23:42:00,60.2,54.7,30.20,West,259,0.0,0.0,82,0.00,,,0.00,0,Wunderground v.1.15,2013-08-16 03:42:00,
2013-08-15 23:48:00,59.9,54.7,30.21,West,259,0.0,0.0,83,0.00,,,0.00,0,Wunderground v.1.15,2013-08-16 03:48:00,
2013-08-15 23:53:00,59.7,54.5,30.21,West,259,0.0,0.0,83,0.00,,,0.00,0,Wunderground v.1.15,2013-08-16 03:53:00,
2013-08-15 23:58:00,59.4,54.2,30.21,West,259,0.0,0.0,83,0.00,,,0.00,0,Wunderground v.1.15,2013-08-16 03:58:00,